createdAt,value
2023-04-07T00:00:18.468Z,9.55
2023-04-07T00:02:51.012Z,9.30
2023-04-07T00:05:23.259Z,9.20
2023-04-07T00:07:57.297Z,8.90
2023-04-07T00:10:29.657Z,8.80
2023-04-07T00:13:02.244Z,9.48
2023-04-07T00:15:34.407Z,9.27
2023-04-07T00:18:06.534Z,10.35
2023-04-07T00:20:38.975Z,10.60
2023-04-07T00:23:11.312Z,10.40
2023-04-07T00:25:43.902Z,9.43
2023-04-07T00:28:16.212Z,9.73
2023-04-07T00:30:48.362Z,10.70
2023-04-07T00:33:20.581Z,10.07
2023-04-07T00:35:54.662Z,9.20
2023-04-07T00:38:26.825Z,9.03
2023-04-07T00:40:59.714Z,10.27
2023-04-07T00:43:32.235Z,8.93
2023-04-07T00:46:04.448Z,9.95
2023-04-07T00:48:37.377Z,9.32
2023-04-07T00:51:09.415Z,9.63
2023-04-07T00:53:42.009Z,9.45
2023-04-07T00:56:14.360Z,10.10
2023-04-07T00:58:46.418Z,9.02
2023-04-07T01:01:55.675Z,9.77
2023-04-07T01:04:43.937Z,9.55
2023-04-07T01:07:23.367Z,9.52
2023-04-07T01:10:08.748Z,9.70
2023-04-07T01:12:53.888Z,10.30
2023-04-07T01:15:31.013Z,9.70
2023-04-07T01:18:13.959Z,8.93
2023-04-07T01:20:48.093Z,9.88
2023-04-07T01:24:01.826Z,9.02
2023-04-07T01:26:35.250Z,10.18
2023-04-07T01:29:07.190Z,8.98
2023-04-07T01:31:41.889Z,9.27
2023-04-07T01:34:16.067Z,7.95
2023-04-07T01:36:50.034Z,9.10
2023-04-07T01:39:23.693Z,9.40
2023-04-07T01:41:58.216Z,9.10
2023-04-07T01:44:33.767Z,10.05
2023-04-07T01:47:06.726Z,9.43
2023-04-07T01:49:41.416Z,9.25
2023-04-07T01:52:14.201Z,8.85
2023-04-07T01:54:47.204Z,9.70
2023-04-07T01:57:19.223Z,8.77
2023-04-07T01:59:54.239Z,9.07
2023-04-07T02:02:29.894Z,8.80
2023-04-07T02:05:06.223Z,9.18
2023-04-07T02:07:49.570Z,8.85
2023-04-07T02:10:24.229Z,8.90
2023-04-07T02:13:00.564Z,8.60
2023-04-07T02:15:36.255Z,8.25
2023-04-07T02:18:10.831Z,9.00
2023-04-07T02:20:45.243Z,8.77
2023-04-07T02:23:17.565Z,8.68
2023-04-07T02:25:49.671Z,9.60
2023-04-07T02:28:21.744Z,9.02
2023-04-07T02:30:53.839Z,8.82
2023-04-07T02:33:25.985Z,7.55
2023-04-07T02:35:58.561Z,9.07
2023-04-07T02:38:32.110Z,9.30
2023-04-07T02:43:36.552Z,7.90
2023-04-07T02:46:08.807Z,8.30
2023-04-07T02:48:41.563Z,7.28
2023-04-07T02:51:15.554Z,7.47
2023-04-07T02:53:47.640Z,7.35
2023-04-07T02:56:19.769Z,7.55
2023-04-07T02:58:51.928Z,6.85
2023-04-07T03:01:24.444Z,7.00
2023-04-07T03:03:57.015Z,7.65
2023-04-07T03:06:31.737Z,5.18
2023-04-07T03:09:12.745Z,5.95
2023-04-07T03:11:45.240Z,6.70
2023-04-07T03:14:17.419Z,6.68
2023-04-07T03:16:52.642Z,5.22
2023-04-07T03:19:24.809Z,7.05
2023-04-07T03:21:57.767Z,7.55
2023-04-07T03:24:30.041Z,7.22
2023-04-07T03:27:02.437Z,6.95
2023-04-07T03:29:44.725Z,6.75
2023-04-07T03:32:19.312Z,5.68
2023-04-07T03:34:51.414Z,7.88
2023-04-07T03:37:26.673Z,7.43
2023-04-07T03:42:36.387Z,7.22
2023-04-07T03:45:11.874Z,7.93
2023-04-07T03:47:48.482Z,7.20
2023-04-07T03:50:22.026Z,7.60
2023-04-07T03:53:11.672Z,7.90
2023-04-07T03:55:44.573Z,8.20
2023-04-07T03:58:25.536Z,8.82
2023-04-07T04:00:57.723Z,7.72
2023-04-07T04:03:30.156Z,7.78
2023-04-07T04:06:22.103Z,7.90
2023-04-07T04:11:29.068Z,7.40
2023-04-07T04:14:04.806Z,8.57
2023-04-07T04:19:17.953Z,8.43
2023-04-07T04:21:50.979Z,8.48
2023-04-07T04:24:23.557Z,8.07
2023-04-07T04:26:56.953Z,8.98
2023-04-07T04:29:30.571Z,8.57
2023-04-07T04:32:06.951Z,8.20
2023-04-07T04:34:42.223Z,9.45
2023-04-07T04:37:15.658Z,8.73
2023-04-07T04:39:50.977Z,8.70
2023-04-07T04:42:28.135Z,8.10
2023-04-07T04:45:02.213Z,8.68
2023-04-07T04:47:35.675Z,8.48
2023-04-07T04:50:09.709Z,8.55
2023-04-07T04:52:43.951Z,8.32
2023-04-07T04:55:23.718Z,8.07
2023-04-07T04:57:58.290Z,7.78
2023-04-07T05:00:40.191Z,8.43
2023-04-07T05:03:14.114Z,9.68
2023-04-07T05:05:51.032Z,9.02
2023-04-07T05:08:27.467Z,12.13
2023-04-07T05:11:00.433Z,9.75
2023-04-07T05:13:37.374Z,9.65
2023-04-07T05:16:10.028Z,9.40
2023-04-07T05:18:42.358Z,10.10
2023-04-07T05:21:14.549Z,9.20
2023-04-07T05:23:46.643Z,10.55
2023-04-07T05:26:19.622Z,10.02
2023-04-07T05:28:51.824Z,8.82
2023-04-07T05:31:27.452Z,9.18
2023-04-07T05:34:02.696Z,8.88
2023-04-07T05:36:40.807Z,9.23
2023-04-07T05:39:13.086Z,10.10
2023-04-07T05:41:45.968Z,10.50
2023-04-07T05:44:19.905Z,9.88
2023-04-07T05:46:53.371Z,10.68
2023-04-07T05:49:28.081Z,9.70
2023-04-07T05:52:16.698Z,9.75
2023-04-07T05:54:55.527Z,9.27
2023-04-07T05:57:31.415Z,9.55
2023-04-07T06:00:06.027Z,8.18
2023-04-07T06:02:46.747Z,11.23
2023-04-07T06:05:23.713Z,9.88
2023-04-07T06:07:59.155Z,10.70
2023-04-07T06:10:33.546Z,10.45
2023-04-07T06:13:05.617Z,10.50
2023-04-07T06:15:37.777Z,10.05
2023-04-07T06:18:09.943Z,7.80
2023-04-07T06:20:42.213Z,10.13
2023-04-07T06:23:14.336Z,9.85
2023-04-07T06:25:48.125Z,10.00
2023-04-07T06:28:21.159Z,11.32
2023-04-07T06:30:54.241Z,11.80
2023-04-07T06:33:28.928Z,10.50
2023-04-07T06:36:02.837Z,10.63
2023-04-07T06:38:35.641Z,11.40
2023-04-07T06:41:11.842Z,10.60
2023-04-07T06:43:45.159Z,10.88
2023-04-07T06:46:18.894Z,11.70
2023-04-07T06:48:51.239Z,11.20
2023-04-07T06:51:23.321Z,10.00
2023-04-07T06:53:55.527Z,10.40
2023-04-07T06:56:27.630Z,9.60
2023-04-07T06:59:00.017Z,10.90
2023-04-07T07:01:32.506Z,10.02
2023-04-07T07:04:06.218Z,9.73
2023-04-07T07:09:13.662Z,10.40
2023-04-07T07:11:46.346Z,10.50
2023-04-07T07:14:18.623Z,10.77
2023-04-07T07:16:50.851Z,10.55
2023-04-07T07:19:23.047Z,11.10
2023-04-07T07:21:57.104Z,10.57
2023-04-07T07:24:29.456Z,9.68
2023-04-07T07:27:02.670Z,10.45
2023-04-07T07:29:34.802Z,10.38
2023-04-07T07:32:06.864Z,10.07
2023-04-07T07:34:38.936Z,9.88
2023-04-07T07:37:12.492Z,11.45
2023-04-07T07:42:16.934Z,10.40
2023-04-07T07:44:49.171Z,10.48
2023-04-07T07:47:22.355Z,10.45
2023-04-07T07:49:54.857Z,9.93
2023-04-07T07:52:27.284Z,8.95
2023-04-07T07:54:59.335Z,9.65
2023-04-07T07:57:32.084Z,10.05
2023-04-07T08:00:04.960Z,11.27
2023-04-07T08:02:45.515Z,9.68
2023-04-07T08:05:18.056Z,10.50
2023-04-07T08:07:51.106Z,9.57
2023-04-07T08:10:25.320Z,9.13
2023-04-07T08:12:57.533Z,9.55
2023-04-07T08:15:29.610Z,9.35
2023-04-07T08:18:04.626Z,10.13
2023-04-07T08:20:36.949Z,9.18
2023-04-07T08:23:09.093Z,9.88
2023-04-07T08:25:41.203Z,8.73
2023-04-07T08:28:13.219Z,10.02
2023-04-07T08:30:45.734Z,9.48
2023-04-07T08:33:17.875Z,9.45
2023-04-07T08:35:50.390Z,9.35
2023-04-07T08:38:22.902Z,9.25
2023-04-07T08:41:02.977Z,9.98
2023-04-07T08:43:39.325Z,10.77
2023-04-07T08:46:12.756Z,8.85
2023-04-07T08:48:45.607Z,10.35
2023-04-07T08:51:27.512Z,9.80
2023-04-07T08:54:10.230Z,8.30
2023-04-07T08:56:43.612Z,9.40
2023-04-07T08:59:18.819Z,9.13
2023-04-07T09:01:52.186Z,9.35
2023-04-07T09:04:25.226Z,9.00
2023-04-07T09:06:57.455Z,9.63
2023-04-07T09:09:29.929Z,8.75
2023-04-07T09:12:02.140Z,8.93
2023-04-07T09:14:34.219Z,9.00
2023-04-07T09:17:06.284Z,8.25
2023-04-07T09:19:38.375Z,8.18
2023-04-07T09:22:12.732Z,9.38
2023-04-07T09:24:44.730Z,8.98
2023-04-07T09:27:19.313Z,8.55
2023-04-07T09:29:51.320Z,8.93
2023-04-07T09:32:39.091Z,10.05
2023-04-07T09:35:11.345Z,9.30
2023-04-07T09:37:43.987Z,8.73
2023-04-07T09:40:27.911Z,9.00
2023-04-07T09:45:35.835Z,8.40
2023-04-07T09:48:19.392Z,9.38
2023-04-07T09:50:52.249Z,8.35
2023-04-07T09:53:42.894Z,8.83
2023-04-07T09:56:17.273Z,8.77
2023-04-07T09:58:53.668Z,8.80
2023-04-07T10:01:26.002Z,9.02
2023-04-07T10:03:59.181Z,8.25
2023-04-07T10:06:31.469Z,8.27
2023-04-07T10:09:03.545Z,8.50
2023-04-07T10:11:37.815Z,8.65
2023-04-07T10:14:13.283Z,8.48
2023-04-07T10:16:47.263Z,8.23
2023-04-07T10:19:19.997Z,8.23
2023-04-07T10:21:54.559Z,8.27
2023-04-07T10:24:29.605Z,8.65
2023-04-07T10:27:08.031Z,8.40
2023-04-07T10:29:43.186Z,7.97
2023-04-07T10:32:15.925Z,8.32
2023-04-07T10:34:48.838Z,8.57
2023-04-07T10:37:22.703Z,8.52
2023-04-07T10:40:19.623Z,8.70
2023-04-07T10:42:52.075Z,8.07
2023-04-07T10:45:53.898Z,8.10
2023-04-07T10:48:28.736Z,7.65
2023-04-07T10:51:08.158Z,7.78
2023-04-07T10:54:15.722Z,8.10
2023-04-07T10:57:03.036Z,7.40
2023-04-07T10:59:35.169Z,7.50
2023-04-07T11:02:13.043Z,7.78
2023-04-07T11:04:47.099Z,7.88
2023-04-07T11:07:20.553Z,7.95
2023-04-07T11:10:09.770Z,8.00
2023-04-07T11:12:42.690Z,7.63
2023-04-07T11:15:24.587Z,7.55
2023-04-07T11:18:17.412Z,7.75
2023-04-07T11:20:53.752Z,8.68
2023-04-07T11:23:27.356Z,8.27
2023-04-07T11:28:38.085Z,7.47
2023-04-07T11:31:10.545Z,7.65
2023-04-07T11:33:43.668Z,8.55
2023-04-07T11:36:26.923Z,8.15
2023-04-07T11:39:00.359Z,8.07
2023-04-07T11:41:34.028Z,8.55
2023-04-07T11:46:59.139Z,7.55
2023-04-07T11:49:32.608Z,7.90
2023-04-07T11:57:27.644Z,7.90
2023-04-07T12:00:10.158Z,7.78
2023-04-07T12:02:42.845Z,7.45
2023-04-07T12:05:15.720Z,7.73
2023-04-07T12:07:55.657Z,7.43
2023-04-07T12:10:27.768Z,7.93
2023-04-07T12:13:00.302Z,7.93
2023-04-07T12:15:32.301Z,8.00
2023-04-07T12:18:04.547Z,8.38
2023-04-07T12:20:37.767Z,7.93
2023-04-07T12:23:10.158Z,8.02
2023-04-07T12:25:42.231Z,7.22
2023-04-07T12:28:14.283Z,7.95
2023-04-07T12:30:46.503Z,7.65
2023-04-07T12:33:18.676Z,7.75
2023-04-07T12:35:50.799Z,7.70
2023-04-07T12:38:22.981Z,7.28
2023-04-07T12:40:55.096Z,7.68
2023-04-07T12:43:27.341Z,8.05
2023-04-07T12:45:59.430Z,7.70
2023-04-07T12:48:31.706Z,7.30
2023-04-07T12:51:03.964Z,7.00
2023-04-07T12:53:36.352Z,7.07
2023-04-07T12:56:08.509Z,8.48
2023-04-07T12:58:41.599Z,8.82
2023-04-07T13:01:14.649Z,7.38
2023-04-07T13:03:47.501Z,8.55
2023-04-07T13:06:20.064Z,7.75
2023-04-07T13:08:52.729Z,8.52
2023-04-07T13:11:24.826Z,9.23
2023-04-07T13:13:58.547Z,9.43
2023-04-07T13:16:32.271Z,9.23
2023-04-07T13:19:04.674Z,9.05
2023-04-07T13:21:46.172Z,9.25
2023-04-07T13:24:19.310Z,9.15
2023-04-07T13:26:52.454Z,9.70
2023-04-07T13:29:24.726Z,9.40
2023-04-07T13:32:10.649Z,9.70
2023-04-07T13:34:43.997Z,9.88
2023-04-07T13:37:16.841Z,10.80
2023-04-07T13:39:49.304Z,10.43
2023-04-07T13:42:21.539Z,10.63
2023-04-07T13:44:55.158Z,10.50
2023-04-07T13:50:02.951Z,9.70
2023-04-07T13:52:35.713Z,9.45
2023-04-07T13:55:08.350Z,10.37
2023-04-07T13:57:40.373Z,9.52
2023-04-07T14:00:14.199Z,10.00
2023-04-07T14:02:47.881Z,9.60
2023-04-07T14:05:21.043Z,10.73
2023-04-07T14:07:53.570Z,9.75
2023-04-07T14:10:26.417Z,10.52
2023-04-07T14:15:31.728Z,10.27
2023-04-07T14:18:03.840Z,10.30
2023-04-07T14:20:36.079Z,10.32
2023-04-07T14:23:08.090Z,11.38
2023-04-07T14:25:40.126Z,11.32
2023-04-07T14:28:12.329Z,10.75
2023-04-07T14:30:44.630Z,10.50
2023-04-07T14:33:17.613Z,10.80
2023-04-07T14:35:49.705Z,10.88
2023-04-07T14:38:26.084Z,9.57
2023-04-07T14:41:09.525Z,9.80
2023-04-07T14:43:42.665Z,9.70
2023-04-07T14:46:15.286Z,9.17
2023-04-07T14:48:47.751Z,8.88
2023-04-07T14:51:21.383Z,9.00
2023-04-07T14:56:28.586Z,8.60
2023-04-07T14:59:00.667Z,8.02
2023-04-07T15:01:32.910Z,9.02
2023-04-07T15:04:05.226Z,8.60
2023-04-07T15:06:37.404Z,8.52
2023-04-07T15:09:09.743Z,9.35
2023-04-07T15:11:41.862Z,7.93
2023-04-07T15:14:14.956Z,7.70
2023-04-07T15:16:48.567Z,7.95
2023-04-07T15:21:52.698Z,7.88
2023-04-07T15:24:24.938Z,7.25
2023-04-07T15:26:57.059Z,7.63
2023-04-07T15:29:29.106Z,8.48
2023-04-07T15:32:01.276Z,8.82
2023-04-07T15:34:33.306Z,8.50
2023-04-07T15:37:05.316Z,8.77
2023-04-07T15:39:37.332Z,7.72
2023-04-07T15:42:12.618Z,9.45
2023-04-07T15:44:44.713Z,8.60
2023-04-07T15:47:16.785Z,8.00
2023-04-07T15:49:48.828Z,8.48
2023-04-07T15:52:21.033Z,8.15
2023-04-07T15:54:53.150Z,8.38
2023-04-07T15:57:25.233Z,7.47
2023-04-07T15:59:57.323Z,9.02
2023-04-07T16:02:29.607Z,8.50
2023-04-07T16:05:01.817Z,8.32
2023-04-07T16:07:34.031Z,7.75
2023-04-07T16:10:08.519Z,7.22
2023-04-07T16:12:41.106Z,8.18
2023-04-07T16:15:14.664Z,8.15
2023-04-07T16:17:49.601Z,8.18
2023-04-07T16:20:21.744Z,8.00
2023-04-07T16:22:54.424Z,7.28
2023-04-07T16:25:26.623Z,7.78
2023-04-07T16:27:58.853Z,7.03
2023-04-07T16:33:36.742Z,8.32
2023-04-07T16:36:09.002Z,8.02
2023-04-07T16:38:41.396Z,7.38
2023-04-07T16:41:13.593Z,7.35
2023-04-07T16:43:46.064Z,7.70
2023-04-07T16:46:18.523Z,7.95
2023-04-07T16:48:52.381Z,7.60
2023-04-07T16:51:25.096Z,7.88
2023-04-07T16:53:57.263Z,9.13
2023-04-07T16:56:29.350Z,8.30
2023-04-07T16:59:03.363Z,7.88
2023-04-07T17:01:36.227Z,7.78
2023-04-07T17:04:08.427Z,8.23
2023-04-07T17:06:40.673Z,8.02
2023-04-07T17:09:16.190Z,7.30
2023-04-07T17:11:48.368Z,8.20
2023-04-07T17:14:21.814Z,8.45
2023-04-07T17:16:53.954Z,7.90
2023-04-07T17:19:26.162Z,7.35
2023-04-07T17:21:58.267Z,8.07
2023-04-07T17:24:30.353Z,8.32
2023-04-07T17:27:02.490Z,7.63
2023-04-07T17:29:34.894Z,7.65
2023-04-07T17:32:08.058Z,8.00
2023-04-07T17:34:40.211Z,10.15
2023-04-07T17:37:12.252Z,17.90
2023-04-07T17:39:44.364Z,11.02
2023-04-07T17:42:16.600Z,8.25
2023-04-07T17:44:52.644Z,12.32
2023-04-07T17:47:25.313Z,7.85
2023-04-07T17:49:57.548Z,8.20
2023-04-07T17:52:30.709Z,8.50
2023-04-07T17:55:02.795Z,8.40
2023-04-07T17:57:36.367Z,7.78
2023-04-07T18:00:09.244Z,8.38
2023-04-07T18:02:47.842Z,8.48
2023-04-07T18:05:20.855Z,8.07
2023-04-07T18:07:55.052Z,8.07
2023-04-07T18:10:28.151Z,8.82
2023-04-07T18:13:00.462Z,9.00
2023-04-07T18:15:33.181Z,8.55
2023-04-07T18:18:05.987Z,8.68
2023-04-07T18:20:38.490Z,9.30
2023-04-07T18:23:10.995Z,8.75
2023-04-07T18:25:43.768Z,7.78
2023-04-07T18:28:17.309Z,10.32
2023-04-07T18:30:49.683Z,7.13
2023-04-07T18:33:21.808Z,9.80
2023-04-07T18:35:53.918Z,11.75
2023-04-07T18:38:26.594Z,15.63
2023-04-07T18:40:59.441Z,15.98
2023-04-07T18:43:33.109Z,12.55
2023-04-07T18:46:05.483Z,9.90
2023-04-07T18:48:38.624Z,8.00
2023-04-07T18:51:11.520Z,7.90
2023-04-07T18:53:43.994Z,8.33
2023-04-07T18:56:16.315Z,7.20
2023-04-07T18:58:49.133Z,7.85
2023-04-07T19:01:21.807Z,7.85
2023-04-07T19:03:54.796Z,8.35
2023-04-07T19:06:28.173Z,8.23
2023-04-07T19:09:00.731Z,8.05
2023-04-07T19:11:33.311Z,8.32
2023-04-07T19:14:06.542Z,7.57
2023-04-07T19:16:39.324Z,7.95
2023-04-07T19:19:13.331Z,8.37
2023-04-07T19:21:46.083Z,11.43
2023-04-07T19:24:18.557Z,12.50
2023-04-07T19:26:52.915Z,10.80
2023-04-07T19:29:25.076Z,10.27
2023-04-07T19:31:57.669Z,12.45
2023-04-07T19:34:29.982Z,12.60
2023-04-07T19:37:02.297Z,12.07
2023-04-07T19:39:35.072Z,12.63
2023-04-07T19:42:07.414Z,13.70
2023-04-07T19:44:39.902Z,11.52
2023-04-07T19:47:12.359Z,12.82
2023-04-07T19:49:46.228Z,13.73
2023-04-07T19:52:18.297Z,14.13
2023-04-07T19:54:50.833Z,15.82
2023-04-07T19:57:23.160Z,15.40
2023-04-07T19:59:56.296Z,17.58
2023-04-07T20:02:29.193Z,16.25
2023-04-07T20:05:01.523Z,18.33
2023-04-07T20:07:33.908Z,17.50
2023-04-07T20:10:06.975Z,18.60
2023-04-07T20:12:39.066Z,18.95
2023-04-07T20:15:12.658Z,19.73
2023-04-07T20:20:18.367Z,18.40
2023-04-07T20:22:51.165Z,18.33
2023-04-07T20:25:23.806Z,19.40
2023-04-07T20:27:55.915Z,19.83
2023-04-07T20:30:28.711Z,21.02
2023-04-07T20:33:00.943Z,20.27
2023-04-07T20:35:33.483Z,20.73
2023-04-07T20:38:05.792Z,20.10
2023-04-07T20:40:38.036Z,20.65
2023-04-07T20:43:10.685Z,19.92
2023-04-07T20:45:42.884Z,20.80
2023-04-07T20:48:17.286Z,20.65
2023-04-07T20:50:50.578Z,18.02
2023-04-07T20:53:23.095Z,19.25
2023-04-07T20:55:55.292Z,19.25
2023-04-07T20:58:27.778Z,19.45
2023-04-07T21:01:01.143Z,19.38
2023-04-07T21:03:33.476Z,17.45
2023-04-07T21:06:05.878Z,18.13
2023-04-07T21:08:38.258Z,17.77
2023-04-07T21:11:10.549Z,18.15
2023-04-07T21:13:42.964Z,18.02
2023-04-07T21:16:15.320Z,18.40
2023-04-07T21:18:47.848Z,18.90
2023-04-07T21:21:20.209Z,18.77
2023-04-07T21:23:52.500Z,17.98
2023-04-07T21:26:24.620Z,18.80
2023-04-07T21:28:56.702Z,18.70
2023-04-07T21:31:28.901Z,18.38
2023-04-07T21:34:01.055Z,17.65
2023-04-07T21:36:34.150Z,17.92
2023-04-07T21:39:07.073Z,18.98
2023-04-07T21:41:39.150Z,19.20
2023-04-07T21:44:12.502Z,19.30
2023-04-07T21:46:44.644Z,17.65
2023-04-07T21:49:22.491Z,18.45
2023-04-07T21:51:54.731Z,19.88
2023-04-07T21:54:27.455Z,19.75
2023-04-07T21:57:01.187Z,19.50
2023-04-07T21:59:33.403Z,18.67
2023-04-07T22:02:05.597Z,18.10
2023-04-07T22:04:38.052Z,17.97
2023-04-07T22:07:10.697Z,18.02
2023-04-07T22:09:42.810Z,18.58
2023-04-07T22:12:14.890Z,18.58
2023-04-07T22:14:47.470Z,18.73
2023-04-07T22:17:19.634Z,19.42
2023-04-07T22:19:51.733Z,20.00
2023-04-07T22:22:23.888Z,18.58
2023-04-07T22:24:56.654Z,18.67
2023-04-07T22:27:28.822Z,19.37
2023-04-07T22:30:02.038Z,21.38
2023-04-07T22:32:34.283Z,20.23
2023-04-07T22:35:06.936Z,20.67
2023-04-07T22:37:39.094Z,18.70
2023-04-07T22:40:11.487Z,19.42
2023-04-07T22:42:43.807Z,18.77
2023-04-07T22:45:16.116Z,18.77
2023-04-07T22:47:48.652Z,19.53
2023-04-07T22:50:23.860Z,18.33
2023-04-07T22:52:56.486Z,19.20
2023-04-07T22:55:29.627Z,18.33
2023-04-07T22:58:01.968Z,17.00
2023-04-07T23:00:34.349Z,18.23
2023-04-07T23:03:06.787Z,17.30
2023-04-07T23:05:39.010Z,17.70
2023-04-07T23:08:11.433Z,18.15
2023-04-07T23:10:43.727Z,17.83
2023-04-07T23:13:16.051Z,16.35
2023-04-07T23:15:48.219Z,16.90
2023-04-07T23:18:20.428Z,16.50
2023-04-07T23:20:52.578Z,16.45
2023-04-07T23:23:24.690Z,18.23
2023-04-07T23:25:59.059Z,17.42
2023-04-07T23:28:31.718Z,17.40
2023-04-07T23:31:03.925Z,17.60
2023-04-07T23:33:35.997Z,16.92
2023-04-07T23:36:08.207Z,18.10
2023-04-07T23:38:40.998Z,15.88
2023-04-07T23:41:13.304Z,16.83
2023-04-07T23:43:45.807Z,16.77
2023-04-07T23:46:18.012Z,16.63
2023-04-07T23:48:50.369Z,16.73
2023-04-07T23:51:23.162Z,16.63
2023-04-07T23:53:55.790Z,15.02
2023-04-07T23:56:29.256Z,15.93
